Time;durP1;ratioP1;P1;durP2;ratioP2;P2;SDS_P1;SDS_P2;PMS_P1;PMS_P2;Temp;Humidity;BMP_temperature;BMP_pressure;BME280_temperature;BME280_humidity;BME280_pressure;Samples;Min_cycle;Max_cycle;Signal;HPM_P1;HPM_P2
2021/04/22 00:00:30;;;;;;;14.27;12.70;;;6.10;80.60;;;;;;5071691;28;20463;-66
2021/04/22 00:02:56;;;;;;;13.23;12.03;;;6.10;81.00;;;;;;5071670;28;20516;-66
2021/04/22 00:05:25;;;;;;;16.90;12.57;;;6.00;82.20;;;;;;5071070;28;20450;-65
2021/04/22 00:07:53;;;;;;;15.47;12.23;;;6.00;83.00;;;;;;5071401;28;20859;-66
2021/04/22 00:10:23;;;;;;;13.10;12.17;;;5.90;84.30;;;;;;5071334;28;20833;-66
2021/04/22 00:12:50;;;;;;;13.30;12.10;;;5.90;86.10;;;;;;5071784;28;20454;-65
2021/04/22 00:15:19;;;;;;;13.00;12.00;;;5.80;86.40;;;;;;5071511;28;20439;-66
2021/04/22 00:17:45;;;;;;;15.47;12.77;;;5.80;87.60;;;;;;5071380;28;20473;-65
2021/04/22 00:20:13;;;;;;;14.67;13.53;;;5.80;88.80;;;;;;5071348;28;20459;-66
2021/04/22 00:22:39;;;;;;;15.13;13.80;;;5.70;90.00;;;;;;5071444;28;20447;-65
2021/04/22 00:25:06;;;;;;;18.33;13.53;;;5.70;90.80;;;;;;5071689;28;20450;-66
2021/04/22 00:27:33;;;;;;;12.90;12.00;;;5.70;90.60;;;;;;5071361;28;20443;-66
2021/04/22 00:30:00;;;;;;;21.00;12.90;;;5.80;90.30;;;;;;5071252;28;20483;-67
2021/04/22 00:32:26;;;;;;;13.73;12.47;;;5.80;90.10;;;;;;5071528;28;20443;-67
2021/04/22 00:34:52;;;;;;;18.07;14.43;;;5.80;90.30;;;;;;5071557;28;20446;-67
2021/04/22 00:37:19;;;;;;;15.30;14.00;;;5.70;90.20;;;;;;5071524;28;20469;-67
2021/04/22 00:39:45;;;;;;;12.90;11.97;;;5.70;91.00;;;;;;5070988;28;20964;-67
2021/04/22 00:42:11;;;;;;;15.13;13.80;;;5.60;91.20;;;;;;5071359;28;20443;-68
2021/04/22 00:44:38;;;;;;;13.20;12.03;;;5.60;91.70;;;;;;5071302;28;20458;-67
2021/04/22 00:47:05;;;;;;;17.43;12.83;;;5.60;92.00;;;;;;5071332;28;20447;-67
2021/04/22 00:49:32;;;;;;;13.20;12.10;;;5.60;92.30;;;;;;5070926;28;20487;-66
2021/04/22 00:51:58;;;;;;;15.63;12.43;;;5.60;92.70;;;;;;5071197;28;20436;-67
2021/04/22 00:54:25;;;;;;;14.73;11.63;;;5.50;93.10;;;;;;5071340;28;20796;-66
2021/04/22 00:56:51;;;;;;;13.30;11.53;;;5.50;93.40;;;;;;5071301;28;20450;-66
2021/04/22 00:59:17;;;;;;;13.40;11.50;;;5.50;94.00;;;;;;5071048;28;20513;-66
2021/04/22 01:01:44;;;;;;;14.33;12.83;;;5.50;94.30;;;;;;5071059;28;20783;-66
2021/04/22 01:04:11;;;;;;;14.37;12.00;;;5.40;94.60;;;;;;5071141;28;20446;-67
2021/04/22 01:06:37;;;;;;;13.43;12.00;;;5.40;95.10;;;;;;5071217;28;20940;-66
2021/04/22 01:09:05;;;;;;;13.00;11.63;;;5.40;95.50;;;;;;5070556;28;20462;-66
2021/04/22 01:11:31;;;;;;;13.27;12.13;;;5.40;95.90;;;;;;5071016;28;20534;-66
2021/04/22 01:13:58;;;;;;;15.63;11.00;;;5.30;96.50;;;;;;5071037;28;20455;-66
2021/04/22 01:16:24;;;;;;;15.50;14.10;;;5.40;97.10;;;;;;5071081;28;20454;-66
2021/04/22 01:18:50;;;;;;;18.07;13.17;;;5.30;97.60;;;;;;5074020;28;20461;-66
2021/04/22 01:21:24;;;;;;;13.50;12.20;;;5.30;98.00;;;;;;5074785;28;20816;-67
2021/04/22 01:23:51;;;;;;;11.93;10.83;;;5.20;98.70;;;;;;5074507;28;20979;-66
2021/04/22 01:26:21;;;;;;;12.93;11.73;;;5.20;99.20;;;;;;5074602;28;20443;-66
2021/04/22 01:28:47;;;;;;;14.50;13.07;;;5.20;99.70;;;;;;5074200;28;20444;-66
2021/04/22 01:31:14;;;;;;;13.60;12.20;;;5.20;99.90;;;;;;5074494;28;20477;-67
2021/04/22 01:33:40;;;;;;;12.70;11.67;;;5.20;99.90;;;;;;5074468;28;20446;-65
2021/04/22 01:36:07;;;;;;;13.60;12.23;;;5.20;99.90;;;;;;5074493;28;20447;-66
2021/04/22 01:38:35;;;;;;;15.27;12.77;;;5.20;99.90;;;;;;5074162;28;20443;-66
2021/04/22 01:41:01;;;;;;;15.27;12.70;;;5.20;99.90;;;;;;5074564;28;20496;-66
2021/04/22 01:43:28;;;;;;;14.03;12.00;;;5.20;99.90;;;;;;5074365;28;20465;-66
2021/04/22 01:45:55;;;;;;;14.17;12.50;;;5.20;99.90;;;;;;5074209;28;20497;-66
2021/04/22 01:48:22;;;;;;;13.30;12.00;;;5.10;99.90;;;;;;5074077;28;20465;-65
2021/04/22 01:50:49;;;;;;;14.50;13.00;;;5.10;99.90;;;;;;5074099;28;20548;-66
2021/04/22 01:53:15;;;;;;;16.00;11.67;;;5.10;99.90;;;;;;5074182;28;20452;-66
2021/04/22 01:55:44;;;;;;;12.27;10.93;;;5.10;99.90;;;;;;5074074;28;20468;-65
2021/04/22 01:58:13;;;;;;;12.97;11.63;;;5.00;99.90;;;;;;5073909;28;20517;-66
2021/04/22 02:00:41;;;;;;;15.03;12.43;;;5.00;99.90;;;;;;5073786;28;20460;-66
2021/04/22 02:03:08;;;;;;;19.07;11.87;;;5.00;99.90;;;;;;5074034;28;20444;-66
2021/04/22 02:05:34;;;;;;;12.93;11.70;;;5.00;99.90;;;;;;5073868;28;20994;-66
2021/04/22 02:08:01;;;;;;;13.30;12.03;;;5.00;99.90;;;;;;5073625;28;20458;-66
2021/04/22 02:10:27;;;;;;;11.87;11.00;;;4.90;99.90;;;;;;5073565;28;20487;-66
2021/04/22 02:12:54;;;;;;;14.07;11.50;;;4.90;99.90;;;;;;5073738;28;20447;-66
2021/04/22 02:15:24;;;;;;;17.57;12.90;;;4.90;99.90;;;;;;5073728;28;20447;-66
2021/04/22 02:17:51;;;;;;;14.27;12.40;;;4.80;99.90;;;;;;5073628;28;20440;-66
2021/04/22 02:20:18;;;;;;;14.50;11.40;;;4.80;99.90;;;;;;5073366;28;20460;-65
2021/04/22 02:22:45;;;;;;;15.53;12.53;;;4.90;99.90;;;;;;5064958;28;21238;-66
2021/04/22 02:25:13;;;;;;;16.17;11.07;;;4.90;99.90;;;;;;5061719;28;20439;-65
2021/04/22 02:27:41;;;;;;;17.03;10.77;;;4.90;99.90;;;;;;5061468;28;20443;-65
2021/04/22 02:30:11;;;;;;;14.77;12.00;;;4.90;99.90;;;;;;5060841;28;21315;-66
2021/04/22 02:32:38;;;;;;;15.73;13.87;;;4.90;99.90;;;;;;5061583;28;20846;-66
2021/04/22 02:35:05;;;;;;;19.63;13.97;;;4.80;99.90;;;;;;5061746;28;20500;-67
2021/04/22 02:37:31;;;;;;;12.75;11.50;;;4.80;99.90;;;;;;5060848;28;20476;-65
2021/04/22 02:39:57;;;;;;;23.00;13.30;;;4.80;99.90;;;;;;5061652;28;20232;-65
2021/04/22 02:42:24;;;;;;;14.73;13.03;;;4.80;99.90;;;;;;5060899;28;20443;-65
2021/04/22 02:44:50;;;;;;;17.27;12.43;;;4.80;99.90;;;;;;5061267;28;20447;-65
2021/04/22 02:47:17;;;;;;;14.73;12.33;;;4.80;99.90;;;;;;5061307;28;20482;-65
2021/04/22 02:49:44;;;;;;;15.43;12.57;;;4.80;99.90;;;;;;5060293;28;20520;-65
2021/04/22 02:52:10;;;;;;;13.03;12.03;;;4.80;99.90;;;;;;5061244;28;20270;-67
2021/04/22 02:54:36;;;;;;;16.07;13.60;;;4.80;99.90;;;;;;5061201;28;20462;-67
2021/04/22 02:57:03;;;;;;;16.47;12.63;;;4.80;99.90;;;;;;5061129;28;20451;-67
2021/04/22 02:59:29;;;;;;;16.57;14.43;;;4.80;99.90;;;;;;5060884;28;20470;-66
2021/04/22 03:01:56;;;;;;;14.23;13.10;;;4.80;99.90;;;;;;5060855;28;20949;-67
2021/04/22 03:04:23;;;;;;;16.17;13.80;;;4.70;99.90;;;;;;5061018;28;20458;-66
2021/04/22 03:06:49;;;;;;;14.13;12.67;;;4.70;99.90;;;;;;5061012;28;20474;-67
2021/04/22 03:09:15;;;;;;;15.60;13.90;;;4.70;99.90;;;;;;5060620;28;20505;-67
2021/04/22 03:11:42;;;;;;;14.87;13.23;;;4.60;99.90;;;;;;5060773;28;20635;-67
2021/04/22 03:14:08;;;;;;;14.67;13.27;;;4.60;99.90;;;;;;5060727;28;20443;-67
2021/04/22 03:16:34;;;;;;;22.23;14.80;;;4.70;99.90;;;;;;5060924;28;20447;-66
2021/04/22 03:19:00;;;;;;;15.30;13.00;;;4.60;99.90;;;;;;5060500;28;21056;-66
2021/04/22 03:21:27;;;;;;;15.40;13.43;;;4.60;99.90;;;;;;5060678;28;20443;-68
2021/04/22 03:23:53;;;;;;;16.00;14.60;;;4.50;99.90;;;;;;5061057;28;20485;-66
2021/04/22 03:26:20;;;;;;;14.80;13.33;;;4.50;99.90;;;;;;5060570;28;21271;-65
2021/04/22 03:28:47;;;;;;;16.70;15.07;;;4.50;99.90;;;;;;5060070;28;20445;-65
2021/04/22 03:31:13;;;;;;;16.17;14.63;;;4.50;99.90;;;;;;5060381;28;20517;-67
2021/04/22 03:33:39;;;;;;;15.50;13.87;;;4.50;99.90;;;;;;5060740;28;20458;-68
2021/04/22 03:36:07;;;;;;;16.00;14.40;;;4.40;99.90;;;;;;5060366;28;20454;-66
2021/04/22 03:38:34;;;;;;;18.40;16.80;;;4.40;99.90;;;;;;5059999;28;20909;-65
2021/04/22 03:41:00;;;;;;;16.47;14.83;;;4.40;99.90;;;;;;5060244;28;20454;-67
2021/04/22 03:43:26;;;;;;;16.40;14.67;;;4.40;99.90;;;;;;5060335;28;20443;-65
2021/04/22 03:45:52;;;;;;;21.67;16.17;;;4.40;99.90;;;;;;5060214;28;20443;-66
2021/04/22 03:48:18;;;;;;;18.00;15.23;;;4.40;99.90;;;;;;5059987;28;20418;-66
2021/04/22 03:50:45;;;;;;;19.53;15.87;;;4.40;99.90;;;;;;5060094;28;21063;-66
2021/04/22 03:53:11;;;;;;;18.90;15.70;;;4.40;99.90;;;;;;5060153;28;21104;-66
2021/04/22 03:55:38;;;;;;;17.53;16.00;;;4.40;99.90;;;;;;5060067;28;20452;-66
2021/04/22 03:58:04;;;;;;;16.70;14.40;;;4.40;99.90;;;;;;5059971;28;20501;-66
2021/04/22 04:00:31;;;;;;;18.20;14.97;;;4.40;99.90;;;;;;5060007;28;20467;-66
2021/04/22 04:02:57;;;;;;;17.47;15.53;;;4.40;99.90;;;;;;5059921;28;20451;-67
2021/04/22 04:05:23;;;;;;;17.73;15.43;;;4.40;99.90;;;;;;5060343;28;21082;-66
2021/04/22 04:07:49;;;;;;;30.67;16.80;;;4.40;99.90;;;;;;5059860;28;20447;-66
2021/04/22 04:10:15;;;;;;;22.63;16.83;;;4.30;99.90;;;;;;5081038;22;21586;-64
2021/04/22 04:12:42;;;;;;;21.03;17.13;;;4.30;99.90;;;;;;5052031;28;20487;-64
2021/04/22 04:15:10;;;;;;;17.40;15.60;;;4.30;99.90;;;;;;5060008;28;20450;-64
2021/04/22 04:17:37;;;;;;;17.03;15.77;;;4.30;99.90;;;;;;5059707;28;20474;-64
2021/04/22 04:20:06;;;;;;;19.50;17.27;;;4.30;99.90;;;;;;5059380;28;20485;-65
2021/04/22 04:22:32;;;;;;;20.23;15.77;;;4.20;99.90;;;;;;5059749;28;20463;-65
2021/04/22 04:24:59;;;;;;;22.03;15.90;;;4.20;99.90;;;;;;5059808;28;20451;-65
2021/04/22 04:27:25;;;;;;;16.63;14.97;;;4.20;99.90;;;;;;5059765;28;20447;-65
2021/04/22 04:29:52;;;;;;;22.60;16.23;;;4.20;99.90;;;;;;5059349;28;20469;-65
2021/04/22 04:32:19;;;;;;;17.60;15.87;;;4.20;99.90;;;;;;5059748;28;20459;-65
2021/04/22 04:34:45;;;;;;;18.67;16.80;;;4.20;99.90;;;;;;5059974;28;20451;-65
2021/04/22 04:37:11;;;;;;;17.83;15.97;;;4.20;99.90;;;;;;5059724;28;20516;-65
2021/04/22 04:39:37;;;;;;;19.27;17.17;;;4.20;99.90;;;;;;5059309;28;20463;-65
2021/04/22 04:42:04;;;;;;;21.50;16.20;;;4.20;99.90;;;;;;5059550;28;20530;-65
2021/04/22 04:44:30;;;;;;;18.27;15.90;;;4.20;99.90;;;;;;5059884;28;20458;-65
2021/04/22 04:46:57;;;;;;;16.97;15.20;;;4.20;99.90;;;;;;5059746;28;21200;-65
2021/04/22 04:49:24;;;;;;;27.10;16.60;;;4.20;99.90;;;;;;5059263;28;20468;-65
2021/04/22 04:51:51;;;;;;;18.73;16.80;;;4.20;99.90;;;;;;5062814;28;20458;-66
2021/04/22 04:54:17;;;;;;;17.63;16.17;;;4.20;99.90;;;;;;5075132;28;20435;-65
2021/04/22 04:56:44;;;;;;;19.43;17.17;;;4.20;99.90;;;;;;5074210;28;20446;-66
2021/04/22 04:59:10;;;;;;;21.27;16.60;;;4.20;99.90;;;;;;5073494;28;21221;-66
2021/04/22 05:01:37;;;;;;;18.93;17.07;;;4.30;99.90;;;;;;5073876;28;20920;-65
2021/04/22 05:04:04;;;;;;;17.47;15.87;;;4.30;99.90;;;;;;5074053;28;20505;-66
2021/04/22 05:06:31;;;;;;;26.60;17.40;;;4.40;99.90;;;;;;5073880;28;20444;-65
2021/04/22 05:08:57;;;;;;;18.57;16.67;;;4.40;99.90;;;;;;5073198;28;20446;-65
2021/04/22 05:11:24;;;;;;;16.80;14.97;;;4.40;99.90;;;;;;5073531;28;20443;-66
2021/04/22 05:13:50;;;;;;;19.70;16.10;;;4.40;99.90;;;;;;5073599;28;20447;-66
2021/04/22 05:16:18;;;;;;;16.87;15.37;;;4.50;99.90;;;;;;5074207;28;20940;-65
2021/04/22 05:18:44;;;;;;;18.50;16.80;;;4.50;99.90;;;;;;5074332;28;20924;-65
2021/04/22 05:21:11;;;;;;;19.27;17.57;;;4.50;99.90;;;;;;5074187;28;20459;-66
2021/04/22 05:23:37;;;;;;;19.53;17.53;;;4.60;99.90;;;;;;5074219;28;20451;-66
2021/04/22 05:26:03;;;;;;;20.33;16.20;;;4.60;99.90;;;;;;5074280;28;20443;-66
2021/04/22 05:28:29;;;;;;;19.40;17.30;;;4.70;99.90;;;;;;5074059;28;20446;-65
2021/04/22 05:30:56;;;;;;;20.17;17.97;;;4.80;99.90;;;;;;5073990;28;20486;-66
2021/04/22 05:33:22;;;;;;;22.90;18.13;;;4.90;99.90;;;;;;5074234;28;20450;-66
2021/04/22 05:35:48;;;;;;;19.30;17.33;;;5.00;99.90;;;;;;5074181;28;20508;-65
2021/04/22 05:38:15;;;;;;;24.00;17.60;;;5.00;99.90;;;;;;5073767;28;20492;-66
2021/04/22 05:40:42;;;;;;;19.67;17.70;;;5.10;99.90;;;;;;5073867;28;20455;-66
2021/04/22 05:43:08;;;;;;;19.77;17.80;;;5.20;99.90;;;;;;5074104;28;20504;-66
2021/04/22 05:45:34;;;;;;;18.70;16.77;;;5.20;99.90;;;;;;5073971;28;20444;-66
2021/04/22 05:48:01;;;;;;;19.67;17.80;;;5.30;99.90;;;;;;5073790;28;20443;-65
2021/04/22 05:50:27;;;;;;;18.73;16.97;;;5.30;99.90;;;;;;5073847;28;20493;-66
2021/04/22 05:52:53;;;;;;;21.80;16.70;;;5.40;99.90;;;;;;5073704;28;20425;-66
2021/04/22 05:55:20;;;;;;;24.17;19.03;;;5.40;99.90;;;;;;5073738;28;20542;-66
2021/04/22 05:57:47;;;;;;;21.00;19.00;;;5.50;99.90;;;;;;5073625;28;20967;-66
2021/04/22 06:00:17;;;;;;;20.60;18.50;;;5.60;99.90;;;;;;5073581;28;20493;-65
2021/04/22 06:02:43;;;;;;;18.97;17.27;;;5.60;99.90;;;;;;5073586;28;20439;-66
2021/04/22 06:05:10;;;;;;;20.90;18.07;;;5.60;99.90;;;;;;5072640;28;20439;-66
2021/04/22 06:07:36;;;;;;;20.57;18.63;;;5.80;99.90;;;;;;5073474;28;20504;-66
2021/04/22 06:10:04;;;;;;;20.77;18.00;;;5.90;99.90;;;;;;5073274;28;20505;-66
2021/04/22 06:12:31;;;;;;;20.10;18.10;;;6.00;99.90;;;;;;5073527;28;20426;-66
2021/04/22 06:14:57;;;;;;;33.07;19.07;;;6.10;99.90;;;;;;5073449;28;20931;-66
2021/04/22 06:17:23;;;;;;;24.63;18.90;;;6.10;99.90;;;;;;5073371;28;20443;-66
2021/04/22 06:19:49;;;;;;;19.73;17.90;;;6.20;99.90;;;;;;5073109;28;20463;-66
2021/04/22 06:22:15;;;;;;;30.13;18.40;;;6.30;99.90;;;;;;5073305;28;20439;-66
2021/04/22 06:24:42;;;;;;;20.80;17.97;;;6.30;99.90;;;;;;5072967;28;20447;-66
2021/04/22 06:27:08;;;;;;;20.43;18.30;;;6.40;99.90;;;;;;5073237;28;20443;-66
2021/04/22 06:29:35;;;;;;;17.90;16.50;;;6.40;99.90;;;;;;5072716;28;20554;-66
2021/04/22 06:32:01;;;;;;;18.43;16.90;;;6.50;99.90;;;;;;5073138;28;20443;-66
2021/04/22 06:34:27;;;;;;;17.67;16.57;;;6.40;99.90;;;;;;5073215;28;20443;-66
2021/04/22 06:36:53;;;;;;;19.63;17.63;;;6.50;99.90;;;;;;5072875;28;20464;-66
2021/04/22 06:39:20;;;;;;;17.83;15.97;;;6.60;99.90;;;;;;5072759;28;20459;-66
2021/04/22 06:41:46;;;;;;;17.57;15.77;;;6.70;99.90;;;;;;5072968;28;20440;-66
2021/04/22 06:44:12;;;;;;;17.47;16.03;;;6.70;99.90;;;;;;5072918;28;20448;-66
2021/04/22 06:46:39;;;;;;;21.23;17.90;;;6.60;99.90;;;;;;5072774;28;20444;-66
2021/04/22 06:49:05;;;;;;;18.73;16.87;;;6.50;99.90;;;;;;5072602;28;20565;-65
2021/04/22 06:51:32;;;;;;;19.57;16.80;;;6.50;99.90;;;;;;5072708;28;20451;-66
2021/04/22 06:53:58;;;;;;;19.03;17.43;;;6.60;99.90;;;;;;5072838;28;20524;-66
2021/04/22 06:56:24;;;;;;;18.43;16.53;;;6.50;98.80;;;;;;5072448;28;20448;-66
2021/04/22 06:58:50;;;;;;;18.57;16.20;;;6.70;99.00;;;;;;5072155;28;20500;-66
2021/04/22 07:01:16;;;;;;;16.30;15.20;;;6.90;98.70;;;;;;5072336;28;20978;-66
2021/04/22 07:03:43;;;;;;;19.90;18.00;;;7.10;98.50;;;;;;5072537;28;20812;-66
2021/04/22 07:06:10;;;;;;;21.67;19.70;;;7.30;97.30;;;;;;5072475;28;20447;-66
2021/04/22 07:08:36;;;;;;;18.00;16.30;;;7.40;96.40;;;;;;5072163;28;20441;-66
2021/04/22 07:11:02;;;;;;;18.73;16.70;;;7.60;95.30;;;;;;5071954;28;20511;-66
2021/04/22 07:13:28;;;;;;;17.87;16.53;;;7.60;94.80;;;;;;5072393;28;20447;-66
2021/04/22 07:15:54;;;;;;;16.63;15.33;;;7.50;94.00;;;;;;5071847;28;20497;-66
2021/04/22 07:18:21;;;;;;;20.03;15.20;;;7.50;93.70;;;;;;5072084;28;20447;-66
2021/04/22 07:20:48;;;;;;;16.47;14.87;;;7.70;92.60;;;;;;5072112;28;20455;-66
2021/04/22 07:23:15;;;;;;;18.10;16.63;;;7.90;91.40;;;;;;5072095;28;20443;-66
2021/04/22 07:25:41;;;;;;;19.17;17.37;;;8.20;90.70;;;;;;5071702;28;20443;-66
2021/04/22 07:28:09;;;;;;;16.17;15.10;;;8.30;89.90;;;;;;5071910;28;20439;-66
2021/04/22 07:30:36;;;;;;;16.77;15.63;;;8.30;86.90;;;;;;5071791;28;20564;-66
2021/04/22 07:33:02;;;;;;;17.37;15.60;;;8.20;83.50;;;;;;5072050;28;20816;-66
2021/04/22 07:35:28;;;;;;;16.47;14.93;;;8.30;83.30;;;;;;5071971;28;20854;-66
2021/04/22 07:37:55;;;;;;;16.93;15.67;;;8.50;81.80;;;;;;5071704;28;20443;-66
2021/04/22 07:40:23;;;;;;;18.20;16.53;;;8.70;82.10;;;;;;5071589;28;20463;-66
2021/04/22 07:42:50;;;;;;;17.07;15.97;;;8.90;79.70;;;;;;5071810;28;20443;-66
2021/04/22 07:45:17;;;;;;;15.83;14.70;;;8.90;76.60;;;;;;5071669;28;20469;-66
2021/04/22 07:47:44;;;;;;;15.87;14.50;;;9.00;74.60;;;;;;5071582;28;20454;-66
2021/04/22 07:50:12;;;;;;;16.40;15.50;;;9.10;72.70;;;;;;5071497;28;20983;-66
2021/04/22 07:52:38;;;;;;;16.60;15.63;;;9.00;71.20;;;;;;5071691;28;20439;-66
2021/04/22 07:55:07;;;;;;;17.07;15.43;;;9.40;71.70;;;;;;5071541;28;20933;-66
2021/04/22 07:57:35;;;;;;;17.47;16.17;;;9.60;70.00;;;;;;5071443;28;20541;-66
2021/04/22 08:00:01;;;;;;;17.00;15.83;;;9.60;67.30;;;;;;5071452;28;20463;-66
2021/04/22 08:02:27;;;;;;;18.93;17.27;;;9.90;67.50;;;;;;5071504;28;20930;-66
2021/04/22 08:04:54;;;;;;;17.97;16.50;;;10.00;61.90;;;;;;5071594;28;20523;-66
2021/04/22 08:07:20;;;;;;;18.53;16.83;;;9.80;62.00;;;;;;5071595;28;20450;-66
2021/04/22 08:09:46;;;;;;;18.67;16.80;;;9.90;62.30;;;;;;5071060;28;20852;-66
2021/04/22 08:12:13;;;;;;;18.50;17.10;;;10.40;62.00;;;;;;5071528;28;20439;-66
2021/04/22 08:14:39;;;;;;;18.07;16.80;;;10.70;59.30;;;;;;5071346;28;20975;-66
2021/04/22 08:17:06;;;;;;;18.03;16.93;;;10.00;57.30;;;;;;5071446;28;20516;-66
2021/04/22 08:19:33;;;;;;;18.83;17.67;;;9.90;59.70;;;;;;5071052;28;20481;-66
2021/04/22 08:21:59;;;;;;;19.93;18.40;;;10.00;58.80;;;;;;5071395;28;20449;-66
2021/04/22 08:24:25;;;;;;;19.40;17.77;;;9.80;59.40;;;;;;5071411;28;20848;-65
2021/04/22 08:26:51;;;;;;;18.33;17.23;;;9.30;59.30;;;;;;5071792;28;20447;-66
2021/04/22 08:29:18;;;;;;;16.93;16.13;;;9.30;59.90;;;;;;5074999;28;20466;-66
2021/04/22 08:31:45;;;;;;;17.17;15.97;;;8.90;59.40;;;;;;5075440;28;20448;-66
2021/04/22 08:34:11;;;;;;;17.53;16.63;;;9.30;60.90;;;;;;5075301;28;20454;-66
2021/04/22 08:36:37;;;;;;;18.00;16.77;;;9.50;60.40;;;;;;5075225;28;20580;-65
2021/04/22 08:39:06;;;;;;;18.27;17.07;;;9.70;59.80;;;;;;5075015;28;20443;-66
2021/04/22 08:41:33;;;;;;;20.27;18.33;;;9.50;58.70;;;;;;5075103;28;20445;-66
2021/04/22 08:44:00;;;;;;;19.33;18.10;;;9.70;59.30;;;;;;5074923;28;20454;-66
2021/04/22 08:46:28;;;;;;;18.67;17.37;;;9.80;58.80;;;;;;5075071;28;20476;-66
2021/04/22 08:48:55;;;;;;;17.23;16.40;;;9.90;58.30;;;;;;5074937;28;20447;-65
2021/04/22 08:51:21;;;;;;;19.23;18.03;;;9.70;58.40;;;;;;5074955;28;20475;-66
2021/04/22 08:53:48;;;;;;;17.83;16.63;;;9.60;58.40;;;;;;5074957;28;20446;-66
2021/04/22 08:56:16;;;;;;;19.07;17.40;;;9.40;58.20;;;;;;5074738;28;20851;-66
2021/04/22 08:58:43;;;;;;;17.20;15.90;;;9.20;58.10;;;;;;5074708;28;20450;-66
2021/04/22 09:01:12;;;;;;;17.80;16.60;;;9.10;58.50;;;;;;5074750;28;20464;-65
2021/04/22 09:03:40;;;;;;;17.20;16.20;;;9.10;59.00;;;;;;5074585;28;20783;-65
2021/04/22 09:06:07;;;;;;;17.80;16.33;;;9.20;59.10;;;;;;5074712;28;20453;-66
2021/04/22 09:08:36;;;;;;;16.73;16.03;;;9.50;59.10;;;;;;5074337;28;20443;-66
2021/04/22 09:11:03;;;;;;;18.20;17.00;;;9.50;57.60;;;;;;5074349;28;20683;-66
2021/04/22 09:13:29;;;;;;;16.00;15.30;;;9.20;57.70;;;;;;5074694;28;20439;-65
2021/04/22 09:16:04;;;;;;;20.07;18.20;;;9.20;57.60;;;;;;5074413;28;20439;-66
2021/04/22 09:18:37;;;;;;;16.10;15.10;;;9.40;59.60;;;;;;5074413;28;20458;-66
2021/04/22 09:21:05;;;;;;;17.03;16.13;;;9.40;57.20;;;;;;5074585;28;20459;-65
2021/04/22 09:23:32;;;;;;;17.70;16.40;;;8.90;56.00;;;;;;5074456;28;20454;-65
2021/04/22 09:26:00;;;;;;;17.13;16.47;;;9.40;57.40;;;;;;5074328;28;20443;-65
2021/04/22 09:28:37;;;;;;;19.30;17.23;;;9.30;56.60;;;;;;5074084;28;20451;-65
2021/04/22 09:31:04;;;;;;;17.13;16.13;;;9.50;56.80;;;;;;5074146;28;20482;-65
2021/04/22 09:33:31;;;;;;;19.57;17.40;;;9.90;57.70;;;;;;5074303;28;20879;-66
2021/04/22 09:36:07;;;;;;;18.40;17.03;;;10.20;57.00;;;;;;5074339;28;20471;-66
2021/04/22 09:38:34;;;;;;;17.77;16.53;;;10.30;55.20;;;;;;5073570;28;20447;-65
2021/04/22 09:41:09;;;;;;;19.43;17.70;;;10.10;53.50;;;;;;5073978;28;20456;-65
2021/04/22 09:43:36;;;;;;;18.97;17.23;;;9.90;55.20;;;;;;5073902;28;20446;-65
2021/04/22 09:46:02;;;;;;;18.53;17.33;;;10.20;55.30;;;;;;5074087;28;20442;-66
2021/04/22 09:48:28;;;;;;;18.97;17.37;;;10.40;54.30;;;;;;5073772;28;20444;-66
2021/04/22 09:50:56;;;;;;;17.43;16.33;;;10.70;53.70;;;;;;5073614;28;20987;-66
2021/04/22 09:53:25;;;;;;;18.40;17.20;;;11.20;54.40;;;;;;5073989;28;20439;-65
2021/04/22 09:55:52;;;;;;;18.00;16.90;;;11.50;53.70;;;;;;5073853;28;20453;-65
2021/04/22 09:58:26;;;;;;;17.87;16.67;;;11.60;53.10;;;;;;5073457;28;20504;-65
2021/04/22 10:00:54;;;;;;;19.70;18.07;;;11.40;53.20;;;;;;5073528;28;20581;-65
2021/04/22 10:03:20;;;;;;;17.10;16.07;;;11.40;53.00;;;;;;5073712;28;20451;-65
2021/04/22 10:05:56;;;;;;;19.10;17.30;;;11.20;51.10;;;;;;5073392;28;21008;-65
2021/04/22 10:08:24;;;;;;;18.67;17.30;;;11.20;52.20;;;;;;5073411;28;20755;-65
2021/04/22 10:10:59;;;;;;;19.10;17.50;;;11.50;52.00;;;;;;5073876;28;20483;-66
2021/04/22 10:13:26;;;;;;;19.87;18.07;;;11.80;51.70;;;;;;5073526;28;20443;-65
2021/04/22 10:15:54;;;;;;;18.07;16.97;;;11.60;51.90;;;;;;5073358;28;20990;-65
2021/04/22 10:18:20;;;;;;;17.80;16.57;;;11.80;50.90;;;;;;5073107;28;20451;-65
2021/04/22 10:20:48;;;;;;;18.67;17.03;;;11.70;49.80;;;;;;5073304;28;20463;-65
2021/04/22 10:23:14;;;;;;;18.00;17.10;;;11.90;50.50;;;;;;5073329;28;20482;-66
2021/04/22 10:25:44;;;;;;;18.17;17.13;;;12.40;50.00;;;;;;5073052;28;20936;-66
2021/04/22 10:28:12;;;;;;;18.00;16.97;;;11.90;48.30;;;;;;5072892;28;20456;-65
2021/04/22 10:30:40;;;;;;;17.77;16.73;;;11.30;49.30;;;;;;5072856;28;21022;-66
2021/04/22 10:33:08;;;;;;;18.47;17.07;;;11.60;49.50;;;;;;5073447;28;20856;-65
2021/04/22 10:35:37;;;;;;;19.47;18.17;;;12.30;48.90;;;;;;5073078;28;20443;-66
2021/04/22 10:38:04;;;;;;;19.30;18.00;;;12.70;48.70;;;;;;5072827;28;20496;-66
2021/04/22 10:40:32;;;;;;;19.93;18.37;;;13.20;48.00;;;;;;5073151;28;20458;-65
2021/04/22 10:43:02;;;;;;;21.10;19.60;;;12.50;47.40;;;;;;5072710;28;20454;-66
2021/04/22 10:45:30;;;;;;;20.80;19.17;;;12.40;48.60;;;;;;5072831;28;20439;-66
2021/04/22 10:47:56;;;;;;;21.83;19.90;;;12.30;48.70;;;;;;5072569;28;20450;-65
2021/04/22 10:50:26;;;;;;;21.40;19.70;;;12.50;48.80;;;;;;5071786;28;20487;-66
2021/04/22 10:52:54;;;;;;;21.97;20.10;;;13.00;48.50;;;;;;5072875;28;20820;-66
2021/04/22 10:55:23;;;;;;;21.60;20.37;;;13.10;47.60;;;;;;5072870;28;20439;-66
2021/04/22 10:57:50;;;;;;;20.30;19.13;;;13.60;47.50;;;;;;5072579;28;20798;-65
2021/04/22 11:00:20;;;;;;;22.00;20.03;;;13.10;46.60;;;;;;5072794;28;20463;-65
2021/04/22 11:02:50;;;;;;;22.27;20.67;;;13.00;47.30;;;;;;5072487;28;20443;-66
2021/04/22 11:05:22;;;;;;;21.60;20.20;;;13.50;47.60;;;;;;5072424;28;20454;-66
2021/04/22 11:08:00;;;;;;;22.33;20.90;;;13.80;46.20;;;;;;5072160;28;20446;-65
2021/04/22 11:10:38;;;;;;;21.23;19.93;;;14.60;46.50;;;;;;5071987;28;21004;-66
2021/04/22 11:13:16;;;;;;;20.20;18.80;;;14.00;44.90;;;;;;5072104;28;20443;-66
2021/04/22 11:15:58;;;;;;;21.00;19.80;;;14.80;44.60;;;;;;5072305;28;20450;-65
2021/04/22 11:18:34;;;;;;;22.63;20.97;;;15.20;42.30;;;;;;5071899;28;20842;-66
2021/04/22 11:21:01;;;;;;;21.73;20.60;;;16.10;43.10;;;;;;5071887;28;20459;-66
2021/04/22 11:23:29;;;;;;;23.40;21.53;;;16.30;41.20;;;;;;5072100;28;20447;-66
2021/04/22 11:25:57;;;;;;;22.30;20.77;;;16.00;41.10;;;;;;5072013;28;20454;-66
2021/04/22 11:28:29;;;;;;;21.30;19.30;;;17.40;41.10;;;;;;5071851;28;20450;-66
2021/04/22 11:31:07;;;;;;;21.20;19.80;;;18.80;38.80;;;;;;5071678;28;20487;-66
2021/04/22 11:33:34;;;;;;;21.00;19.33;;;18.80;37.50;;;;;;5071815;28;20554;-66
2021/04/22 11:36:11;;;;;;;21.30;20.07;;;20.60;35.90;;;;;;5071808;28;20439;-66
2021/04/22 11:38:48;;;;;;;21.37;19.87;;;20.20;33.80;;;;;;5071751;28;20450;-66
2021/04/22 11:41:14;;;;;;;21.27;19.40;;;19.80;33.30;;;;;;5071769;28;20987;-66
2021/04/22 11:43:40;;;;;;;22.63;20.93;;;22.00;33.90;;;;;;5071776;28;20512;-66
2021/04/22 11:46:07;;;;;;;22.30;20.67;;;22.30;31.60;;;;;;5071635;28;20790;-66
2021/04/22 11:48:38;;;;;;;20.73;19.53;;;23.40;29.80;;;;;;5071541;28;20443;-66
2021/04/22 11:51:05;;;;;;;22.90;21.50;;;23.60;28.60;;;;;;5071611;28;20482;-66
2021/04/22 11:53:34;;;;;;;21.53;20.37;;;24.10;29.20;;;;;;5071734;28;20533;-66
2021/04/22 11:56:01;;;;;;;23.00;21.37;;;24.90;28.60;;;;;;5071578;28;20948;-66
2021/04/22 11:58:28;;;;;;;23.37;21.90;;;23.50;28.60;;;;;;5071481;28;20448;-66
2021/04/22 12:00:56;;;;;;;22.70;21.20;;;25.40;27.50;;;;;;5071472;28;20604;-66
2021/04/22 12:03:25;;;;;;;23.00;21.70;;;26.50;27.10;;;;;;5071372;28;20451;-66
2021/04/22 12:05:53;;;;;;;22.07;20.90;;;26.00;25.40;;;;;;5071557;28;20454;-65
2021/04/22 12:08:26;;;;;;;21.57;20.47;;;26.10;26.00;;;;;;5071202;28;20443;-66
2021/04/22 12:10:52;;;;;;;23.13;21.63;;;26.10;25.80;;;;;;5071125;28;20490;-67
2021/04/22 12:13:21;;;;;;;22.37;21.20;;;28.10;25.60;;;;;;5071530;28;20446;-66
2021/04/22 12:15:48;;;;;;;23.30;21.60;;;28.80;24.30;;;;;;5071362;28;20451;-66
2021/04/22 12:18:22;;;;;;;22.50;21.17;;;26.50;25.20;;;;;;5071246;28;20501;-66
2021/04/22 12:20:49;;;;;;;21.13;20.13;;;27.70;24.50;;;;;;5071364;28;20458;-66
2021/04/22 12:23:26;;;;;;;23.50;21.97;;;26.30;24.60;;;;;;5071256;28;20447;-66
2021/04/22 12:25:52;;;;;;;22.60;21.30;;;25.50;25.40;;;;;;5071237;28;20450;-66
2021/04/22 12:28:18;;;;;;;24.13;22.63;;;26.70;25.50;;;;;;5070821;28;20447;-67
2021/04/22 12:30:46;;;;;;;22.10;20.80;;;29.50;24.40;;;;;;5071136;28;20479;-66
2021/04/22 12:33:16;;;;;;;24.23;22.20;;;27.60;23.90;;;;;;5071176;28;20451;-66